Time;durP1;ratioP1;P1;durP2;ratioP2;P2;SDS_P1;SDS_P2;PMS_P1;PMS_P2;Temp;Humidity;BMP_temperature;BMP_pressure;BME280_temperature;BME280_humidity;BME280_pressure;Samples;Min_cycle;Max_cycle;Signal;HPM_P1;HPM_P2
2023/02/04 00:02:17;;;;;;;;;;;;;;;16.19;43.44;100715.84;4966712;28;1137;-52
2023/02/04 00:04:42;;;;;;;;;;;;;;;15.82;44.46;100714.09;4979474;28;894;-54
2023/02/04 00:07:08;;;;;;;;;;;;;;;15.54;45.15;100713.44;4966423;28;1181;-56
2023/02/04 00:09:33;;;;;;;;;;;;;;;15.85;44.77;100710.81;4970603;28;1110;-55
2023/02/04 00:11:59;;;;;;;;;;;;;;;17.30;41.43;100701.47;4958668;28;1149;-51
2023/02/04 00:14:24;;;;;;;;;;;;;;;16.60;42.63;100705.69;4970674;28;1224;-52
2023/02/04 00:16:49;;;;;;;;;;;;;;;15.91;44.32;100712.50;4975309;28;1559;-55
2023/02/04 00:19:15;;;;;;;;;;;;;;;15.61;44.88;100699.47;4979377;28;1975;-55
2023/02/04 00:21:41;;;;;;;;;;;;;;;15.38;45.33;100696.09;4966964;28;1188;-53
2023/02/04 00:24:06;;;;;;;;;;;;;;;16.81;42.43;100688.38;4970346;28;1149;-52
2023/02/04 00:26:32;;;;;;;;;;;;;;;17.46;40.65;100688.50;4975204;28;1070;-53
2023/02/04 00:28:57;;;;;;;;;;;;;;;16.29;43.22;100677.44;4979075;28;894;-57
2023/02/04 00:31:23;;;;;;;;;;;;;;;15.78;44.59;100678.16;4948829;28;1189;-54
2023/02/04 00:33:49;;;;;;;;;;;;;;;15.47;45.22;100682.72;4979121;28;1050;-54
2023/02/04 00:36:14;;;;;;;;;;;;;;;17.00;41.82;100675.72;4948995;28;1304;-53
2023/02/04 00:38:40;;;;;;;;;;;;;;;16.96;41.66;100671.91;4970363;28;1205;-54
2023/02/04 00:41:05;;;;;;;;;;;;;;;16.06;43.88;100667.78;4974280;28;1910;-55
2023/02/04 00:43:31;;;;;;;;;;;;;;;15.68;44.98;100673.47;4970406;28;1153;-54
2023/02/04 00:45:56;;;;;;;;;;;;;;;16.04;44.29;100664.50;4961971;28;1046;-53
2023/02/04 00:48:22;;;;;;;;;;;;;;;17.41;40.92;100655.53;4970133;28;1129;-54
2023/02/04 00:50:47;;;;;;;;;;;;;;;16.42;42.87;100660.44;4972138;28;1046;-55
2023/02/04 00:53:13;;;;;;;;;;;;;;;15.87;44.35;100648.31;4959457;28;975;-56
2023/02/04 00:55:38;;;;;;;;;;;;;;;15.55;45.14;100652.84;4973146;28;1034;-52
2023/02/04 00:58:04;;;;;;;;;;;;;;;16.58;42.79;100647.50;4979381;28;1089;-52
2023/02/04 01:00:29;;;;;;;;;;;;;;;17.32;41.05;100632.47;4965404;28;1979;-55
2023/02/04 01:02:55;;;;;;;;;;;;;;;16.21;43.54;100632.13;4971086;28;1121;-52
2023/02/04 01:05:20;;;;;;;;;;;;;;;15.78;44.59;100627.97;4973389;28;1339;-55
2023/02/04 01:07:45;;;;;;;;;;;;;;;15.53;45.22;100633.13;4978661;28;1085;-54
2023/02/04 01:10:11;;;;;;;;;;;;;;;15.85;44.68;100628.56;4977128;28;1296;-57
2023/02/04 01:12:36;;;;;;;;;;;;;;;17.30;41.16;100623.69;4978312;28;1064;-58
2023/02/04 01:15:04;;;;;;;;;;;;;;;16.67;42.43;100625.78;4978104;28;1084;-56
2023/02/04 01:17:30;;;;;;;;;;;;;;;15.98;43.89;100622.56;4978014;28;882;-54
2023/02/04 01:19:55;;;;;;;;;;;;;;;15.64;44.89;100617.53;4978100;28;1902;-52
2023/02/04 01:22:21;;;;;;;;;;;;;;;16.21;43.56;100604.72;4960962;28;1156;-56
2023/02/04 01:24:47;;;;;;;;;;;;;;;17.52;40.61;100612.31;4977295;28;1132;-53
2023/02/04 01:27:31;;;;;;;;;;;;;;;16.35;43.24;100613.19;4968478;28;1054;-53
2023/02/04 01:29:56;;;;;;;;;;;;;;;15.83;44.57;100608.81;4973156;28;1104;-55
2023/02/04 01:32:22;;;;;;;;;;;;;;;15.62;44.95;100607.94;4968701;28;1122;-54
2023/02/04 01:34:47;;;;;;;;;;;;;;;15.71;44.74;100596.19;4978003;28;1076;-55
2023/02/04 01:37:13;;;;;;;;;;;;;;;17.22;41.53;100595.72;4978036;28;1038;-55
2023/02/04 01:39:40;;;;;;;;;;;;;;;16.99;41.67;100585.38;4992570;28;1915;-54
2023/02/04 01:42:06;;;;;;;;;;;;;;;16.12;43.66;100591.81;4977825;28;890;-55
2023/02/04 01:44:31;;;;;;;;;;;;;;;15.73;44.69;100587.66;4992854;28;1076;-53
2023/02/04 01:46:57;;;;;;;;;;;;;;;15.45;45.11;100583.53;4977987;28;1093;-55
2023/02/04 01:49:22;;;;;;;;;;;;;;;16.86;42.27;100586.75;4957584;28;1515;-53
2023/02/04 01:51:48;;;;;;;;;;;;;;;17.15;41.41;100575.13;4968198;28;1052;-52
2023/02/04 01:54:13;;;;;;;;;;;;;;;16.15;43.46;100581.13;4977155;28;880;-53
2023/02/04 01:56:39;;;;;;;;;;;;;;;15.71;44.69;100576.97;4967329;28;1126;-58
2023/02/04 01:59:09;;;;;;;;;;;;;;;15.49;45.05;100582.69;4989010;28;1585;-53
2023/02/04 02:01:42;;;;;;;;;;;;;;;17.03;41.88;100569.97;4992525;28;1910;-53
2023/02/04 02:04:08;;;;;;;;;;;;;;;17.06;41.32;100570.22;4972918;28;1073;-51
2023/02/04 02:06:34;;;;;;;;;;;;;;;16.13;43.88;100574.28;4983677;28;919;-54
2023/02/04 02:09:00;;;;;;;;;;;;;;;15.74;44.73;100561.91;4949356;28;1331;-55
2023/02/04 02:11:25;;;;;;;;;;;;;;;15.86;44.45;100567.97;4977339;28;1062;-55
2023/02/04 02:13:51;;;;;;;;;;;;;;;17.34;40.88;100562.38;4964822;28;1197;-56
2023/02/04 02:16:16;;;;;;;;;;;;;;;16.63;42.56;100563.50;4992503;28;1034;-54
2023/02/04 02:18:44;;;;;;;;;;;;;;;15.96;43.92;100561.66;4963129;28;1384;-55
2023/02/04 02:21:11;;;;;;;;;;;;;;;15.60;44.79;100550.66;4981031;28;1967;-53
2023/02/04 02:23:45;;;;;;;;;;;;;;;15.70;44.92;100545.19;4954111;29;1157;-57
2023/02/04 02:26:11;;;;;;;;;;;;;;;17.33;41.02;100552.47;4970916;28;1221;-51
2023/02/04 02:28:36;;;;;;;;;;;;;;;16.56;42.68;100539.06;4978854;28;1480;-51
2023/02/04 02:31:03;;;;;;;;;;;;;;;15.93;44.16;100533.97;4977089;28;1081;-53
2023/02/04 02:33:28;;;;;;;;;;;;;;;15.61;44.94;100537.78;4991806;28;1211;-57
2023/02/04 02:35:54;;;;;;;;;;;;;;;15.38;45.24;100537.19;4977221;28;1093;-51
2023/02/04 02:38:19;;;;;;;;;;;;;;;16.94;41.77;100534.00;4963052;28;1580;-51
2023/02/04 02:40:45;;;;;;;;;;;;;;;17.21;40.93;100508.06;4978958;28;1894;-55
2023/02/04 02:43:14;;;;;;;;;;;;;;;16.18;43.38;100522.16;4953768;29;1060;-51
2023/02/04 02:45:40;;;;;;;;;;;;;;;15.76;44.40;100520.50;4985978;28;1134;-53
2023/02/04 02:48:05;;;;;;;;;;;;;;;15.50;44.92;100512.25;4970337;28;1193;-53
2023/02/04 02:50:31;;;;;;;;;;;;;;;16.92;41.77;100500.53;4971248;28;1026;-54
2023/02/04 02:52:58;;;;;;;;;;;;;;;17.48;40.51;100504.84;4941425;28;1165;-53
2023/02/04 02:55:25;;;;;;;;;;;;;;;16.37;43.11;100497.69;4952930;28;1215;-51
2023/02/04 02:57:50;;;;;;;;;;;;;;;15.87;44.16;100495.59;4969123;28;1100;-56
2023/02/04 03:00:20;;;;;;;;;;;;;;;15.57;44.64;100496.38;4985287;28;1983;-52
2023/02/04 03:02:50;;;;;;;;;;;;;;;15.68;44.72;100476.13;4966890;28;1138;-56
2023/02/04 03:05:16;;;;;;;;;;;;;;;17.27;41.27;100473.94;4975214;28;1635;-55
2023/02/04 03:07:41;;;;;;;;;;;;;;;16.80;42.13;100472.53;4969690;28;1173;-55
2023/02/04 03:10:07;;;;;;;;;;;;;;;16.05;43.78;100469.50;4969175;28;1150;-53
2023/02/04 03:12:32;;;;;;;;;;;;;;;15.64;44.68;100466.78;4964643;28;1427;-52
2023/02/04 03:14:59;;;;;;;;;;;;;;;15.47;44.98;100468.97;4976825;28;1081;-57
2023/02/04 03:17:26;;;;;;;;;;;;;;;16.57;42.62;100469.34;4978457;28;1223;-55
2023/02/04 03:19:51;;;;;;;;;;;;;;;17.38;40.69;100472.75;4950130;28;1910;-51
2023/02/04 03:22:17;;;;;;;;;;;;;;;16.24;43.12;100466.16;4980657;28;1053;-54
2023/02/04 03:24:44;;;;;;;;;;;;;;;15.76;44.48;100468.44;4978869;28;1320;-54
2023/02/04 03:27:09;;;;;;;;;;;;;;;15.50;45.04;100472.00;4995208;28;1131;-55
2023/02/04 03:29:39;;;;;;;;;;;;;;;15.81;44.23;100465.69;4977304;28;1542;-54
2023/02/04 03:32:05;;;;;;;;;;;;;;;17.30;41.12;100473.34;4969470;28;1022;-53
2023/02/04 03:34:30;;;;;;;;;;;;;;;17.10;41.20;100469.66;4978375;28;1140;-53
2023/02/04 03:36:56;;;;;;;;;;;;;;;16.14;43.40;100471.69;4969556;28;1213;-54
2023/02/04 03:39:21;;;;;;;;;;;;;;;15.78;44.36;100468.97;4979634;28;1977;-54
2023/02/04 03:41:47;;;;;;;;;;;;;;;15.55;44.85;100463.75;4979925;28;1053;-52
2023/02/04 03:44:12;;;;;;;;;;;;;;;17.16;41.41;100459.44;4980100;28;1093;-54
2023/02/04 03:46:38;;;;;;;;;;;;;;;16.73;42.14;100457.19;4980114;28;1046;-54
2023/02/04 03:49:03;;;;;;;;;;;;;;;15.99;43.63;100454.16;4979982;28;1112;-56
2023/02/04 03:51:29;;;;;;;;;;;;;;;15.64;44.44;100453.09;4979880;28;1062;-59
2023/02/04 03:53:54;;;;;;;;;;;;;;;15.43;45.23;100445.94;4978643;28;1145;-55
2023/02/04 03:56:20;;;;;;;;;;;;;;;16.73;42.14;100446.22;4979897;28;1343;-54
2023/02/04 03:58:45;;;;;;;;;;;;;;;17.44;40.71;100438.63;4979348;28;1042;-52
2023/02/04 04:01:10;;;;;;;;;;;;;;;16.27;43.26;100431.88;4966820;28;1982;-50
2023/02/04 04:03:36;;;;;;;;;;;;;;;15.80;44.25;100431.16;4979577;28;1156;-54
2023/02/04 04:06:04;;;;;;;;;;;;;;;15.53;44.88;100424.06;4960405;28;1020;-50
2023/02/04 04:08:29;;;;;;;;;;;;;;;15.33;45.22;100416.63;4966595;28;1209;-51
2023/02/04 04:10:54;;;;;;;;;;;;;;;16.41;42.96;100410.94;4979698;28;1136;-55
2023/02/04 04:13:20;;;;;;;;;;;;;;;17.48;40.53;100402.31;4979267;28;1057;-51
2023/02/04 04:15:45;;;;;;;;;;;;;;;16.48;42.54;100389.53;4959968;29;1126;-54
2023/02/04 04:18:11;;;;;;;;;;;;;;;15.86;43.96;100384.25;4972341;28;1109;-53
2023/02/04 04:20:36;;;;;;;;;;;;;;;15.55;44.75;100380.72;4967864;28;1931;-53
2023/02/04 04:23:02;;;;;;;;;;;;;;;16.25;43.26;100380.03;4979143;28;1144;-55
2023/02/04 04:25:27;;;;;;;;;;;;;;;17.50;40.75;100375.34;4966210;28;1133;-56
2023/02/04 04:27:52;;;;;;;;;;;;;;;16.76;41.93;100370.72;4978827;28;1279;-57
2023/02/04 04:30:18;;;;;;;;;;;;;;;16.00;43.83;100367.22;4973988;28;1074;-56
2023/02/04 04:32:43;;;;;;;;;;;;;;;15.69;44.39;100359.88;4971967;28;1154;-55
2023/02/04 04:35:09;;;;;;;;;;;;;;;16.40;43.14;100351.69;4973987;28;1022;-53
2023/02/04 04:37:34;;;;;;;;;;;;;;;17.57;40.53;100348.34;4971227;28;1089;-53
2023/02/04 04:40:00;;;;;;;;;;;;;;;16.45;42.52;100359.06;4973680;28;1899;-51
2023/02/04 04:42:26;;;;;;;;;;;;;;;15.86;43.89;100353.28;4971086;28;1070;-52
2023/02/04 04:44:51;;;;;;;;;;;;;;;15.60;44.76;100353.34;4978715;28;1085;-54
2023/02/04 04:47:16;;;;;;;;;;;;;;;15.40;44.94;100352.25;4967421;28;1169;-57
2023/02/04 04:49:42;;;;;;;;;;;;;;;16.72;42.33;100348.47;4964632;28;1177;-58
2023/02/04 04:52:07;;;;;;;;;;;;;;;17.39;40.68;100347.97;4965954;28;931;-57
2023/02/04 04:54:33;;;;;;;;;;;;;;;16.28;43.24;100342.97;4966028;28;1237;-54
2023/02/04 04:56:58;;;;;;;;;;;;;;;15.74;44.06;100337.13;4970172;28;1520;-53
2023/02/04 04:59:24;;;;;;;;;;;;;;;15.54;44.63;100332.50;4962220;28;1970;-53
2023/02/04 05:01:49;;;;;;;;;;;;;;;15.42;45.16;100337.44;4971339;28;1129;-57
2023/02/04 05:04:14;;;;;;;;;;;;;;;17.01;41.34;100336.78;4965201;28;1138;-55
2023/02/04 05:06:40;;;;;;;;;;;;;;;17.51;40.05;100333.81;4974223;28;1149;-58
2023/02/04 05:09:05;;;;;;;;;;;;;;;16.23;42.54;100327.38;4959985;28;1081;-54
2023/02/04 05:11:31;;;;;;;;;;;;;;;16.59;41.72;100325.25;4959333;28;1085;-58
2023/02/04 05:13:56;;;;;;;;;;;;;;;17.86;38.90;100328.22;4958691;28;1074;-61
2023/02/04 05:16:22;;;;;;;;;;;;;;;17.14;40.19;100328.94;4959190;28;1026;-59
2023/02/04 05:18:47;;;;;;;;;;;;;;;16.33;42.15;100327.31;4961898;28;1214;-57
2023/02/04 05:21:12;;;;;;;;;;;;;;;15.94;43.03;100333.50;4959032;28;1977;-60
2023/02/04 05:23:38;;;;;;;;;;;;;;;15.69;43.50;100329.72;4959180;28;1170;-60
2023/02/04 05:26:03;;;;;;;;;;;;;;;17.32;40.25;100321.94;4959278;28;1058;-58
2023/02/04 05:28:29;;;;;;;;;;;;;;;16.56;41.36;100319.47;4954965;28;1342;-60
2023/02/04 05:30:54;;;;;;;;;;;;;;;15.94;42.65;100316.25;4952366;28;1038;-60
2023/02/04 05:33:20;;;;;;;;;;;;;;;15.78;43.47;100320.94;4958721;28;1105;-60
2023/02/04 05:35:45;;;;;;;;;;;;;;;15.55;43.75;100313.03;4958619;28;1007;-58
2023/02/04 05:38:10;;;;;;;;;;;;;;;15.37;44.28;100314.44;4958597;28;1332;-59
2023/02/04 05:40:36;;;;;;;;;;;;;;;16.62;41.52;100312.88;4958575;28;1902;-60
2023/02/04 05:43:03;;;;;;;;;;;;;;;17.47;39.54;100320.97;4957470;28;1264;-59
2023/02/04 05:45:29;;;;;;;;;;;;;;;16.28;42.16;100308.13;4956401;28;1560;-47
2023/02/04 05:47:54;;;;;;;;;;;;;;;15.80;43.16;100307.81;4958159;28;1184;-54
2023/02/04 05:50:19;;;;;;;;;;;;;;;15.54;44.10;100310.56;4958344;28;963;-57
2023/02/04 05:52:45;;;;;;;;;;;;;;;15.24;44.79;100304.06;4958023;28;1185;-52
2023/02/04 05:55:10;;;;;;;;;;;;;;;16.63;41.67;100316.41;4966816;28;1058;-55
2023/02/04 05:57:36;;;;;;;;;;;;;;;17.33;40.29;100307.91;4960938;28;998;-53
2023/02/04 06:00:02;;;;;;;;;;;;;;;16.21;42.36;100313.09;4957995;28;1914;-56
2023/02/04 06:02:37;;;;;;;;;;;;;;;15.72;43.66;100314.63;4957269;28;1692;-55
2023/02/04 06:05:02;;;;;;;;;;;;;;;15.94;43.03;100305.28;4958102;28;1003;-51
2023/02/04 06:07:28;;;;;;;;;;;;;;;17.43;39.81;100306.97;4954710;28;2381;-49
2023/02/04 06:09:53;;;;;;;;;;;;;;;16.68;41.04;100305.41;4958318;28;1139;-50
2023/02/04 06:12:19;;;;;;;;;;;;;;;16.06;42.33;100305.75;4958370;28;1097;-49
2023/02/04 06:14:44;;;;;;;;;;;;;;;15.74;43.26;100305.03;4957886;28;1073;-49
2023/02/04 06:17:09;;;;;;;;;;;;;;;15.53;43.68;100314.44;4958278;28;1026;-53
2023/02/04 06:19:35;;;;;;;;;;;;;;;16.86;40.45;100309.41;4968590;28;1898;-58
2023/02/04 06:22:00;;;;;;;;;;;;;;;15.64;43.13;100307.81;4959305;28;1010;-49
2023/02/04 06:24:26;;;;;;;;;;;;;;;15.33;43.85;100307.06;4957970;28;947;-57
2023/02/04 06:26:51;;;;;;;;;;;;;;;15.02;44.50;100305.16;4962688;28;1216;-52
2023/02/04 06:29:16;;;;;;;;;;;;;;;16.33;41.88;100297.13;4966186;28;1129;-48
2023/02/04 06:31:43;;;;;;;;;;;;;;;15.28;44.25;100294.19;4964011;28;1094;-50
2023/02/04 06:34:08;;;;;;;;;;;;;;;16.82;41.07;100300.91;4958512;28;1117;-49
2023/02/04 06:36:34;;;;;;;;;;;;;;;16.43;41.60;100294.31;4957674;28;1148;-50
2023/02/04 06:38:59;;;;;;;;;;;;;;;15.53;43.52;100292.50;4958042;28;1152;-54
2023/02/04 06:41:25;;;;;;;;;;;;;;;15.20;44.21;100283.81;4956831;28;1910;-54
2023/02/04 06:43:50;;;;;;;;;;;;;;;16.35;41.99;100294.91;4950174;28;1540;-50
2023/02/04 06:46:16;;;;;;;;;;;;;;;15.48;43.60;100287.84;4950491;28;976;-51
2023/02/04 06:48:41;;;;;;;;;;;;;;;15.99;43.22;100297.03;4957928;28;1081;-51
2023/02/04 06:51:07;;;;;;;;;;;;;;;16.57;41.33;100296.44;4958784;28;1128;-46
2023/02/04 06:53:32;;;;;;;;;;;;;;;15.63;43.53;100288.94;4961852;28;1058;-50
2023/02/04 06:55:57;;;;;;;;;;;;;;;15.35;43.95;100297.47;4972575;28;1117;-51
2023/02/04 06:58:23;;;;;;;;;;;;;;;16.18;42.27;100280.75;4970558;28;1343;-48
2023/02/04 07:00:48;;;;;;;;;;;;;;;15.44;43.88;100281.28;4960917;28;1983;-48
2023/02/04 07:03:14;;;;;;;;;;;;;;;15.12;44.01;100276.94;4960758;28;1265;-53
2023/02/04 07:05:39;;;;;;;;;;;;;;;16.04;42.62;100286.84;4961334;28;1074;-53
2023/02/04 07:08:04;;;;;;;;;;;;;;;15.25;44.20;100281.06;4962940;28;929;-55
2023/02/04 07:10:31;;;;;;;;;;;;;;;16.21;42.65;100271.94;4961396;28;998;-53
2023/02/04 07:12:57;;;;;;;;;;;;;;;15.73;43.37;100281.47;4961431;28;1073;-53
2023/02/04 07:15:22;;;;;;;;;;;;;;;15.25;44.36;100280.22;4961352;28;1140;-57
2023/02/04 07:17:47;;;;;;;;;;;;;;;16.67;41.55;100277.13;4961382;28;1097;-55
2023/02/04 07:20:13;;;;;;;;;;;;;;;15.54;43.87;100283.16;4969094;28;1984;-50
2023/02/04 07:22:38;;;;;;;;;;;;;;;15.24;44.27;100276.69;4961288;28;1061;-50
2023/02/04 07:25:04;;;;;;;;;;;;;;;14.99;44.46;100261.09;4961143;28;1065;-53
2023/02/04 07:27:29;;;;;;;;;;;;;;;16.11;43.04;100263.78;4960652;28;1161;-52
2023/02/04 07:29:55;;;;;;;;;;;;;;;15.55;43.98;100268.38;4961497;28;1177;-50
2023/02/04 07:32:20;;;;;;;;;;;;;;;16.03;43.21;100263.28;4962794;28;888;-54
2023/02/04 07:34:47;;;;;;;;;;;;;;;16.97;41.03;100263.47;4960565;28;1057;-53
2023/02/04 07:37:12;;;;;;;;;;;;;;;15.68;43.55;100264.22;4961306;28;1208;-56
2023/02/04 07:39:37;;;;;;;;;;;;;;;15.36;44.31;100259.94;4961098;28;1899;-52
2023/02/04 07:42:03;;;;;;;;;;;;;;;16.44;42.05;100256.72;4960744;28;1204;-51
2023/02/04 07:44:34;;;;;;;;;;;;;;;15.50;44.04;100260.16;4952242;29;1196;-48
2023/02/04 07:46:59;;;;;;;;;;;;;;;15.13;44.50;100261.34;4960824;28;1042;-51
2023/02/04 07:49:25;;;;;;;;;;;;;;;15.66;43.77;100258.22;4960743;28;1125;-55
2023/02/04 07:51:51;;;;;;;;;;;;;;;15.43;44.22;100263.22;4961072;28;1132;-53
2023/02/04 07:54:16;;;;;;;;;;;;;;;15.10;44.86;100257.25;4960261;28;1185;-53
2023/02/04 07:56:41;;;;;;;;;;;;;;;16.61;41.78;100259.06;4963938;28;892;-49
2023/02/04 07:59:07;;;;;;;;;;;;;;;15.52;44.12;100252.50;4960622;28;1146;-55
2023/02/04 08:01:32;;;;;;;;;;;;;;;16.11;43.25;100252.81;4960537;28;1986;-51
2023/02/04 08:03:58;;;;;;;;;;;;;;;15.89;43.44;100251.28;4960211;28;1098;-56
2023/02/04 08:06:23;;;;;;;;;;;;;;;16.36;42.58;100254.59;4960279;28;1125;-46
2023/02/04 08:08:49;;;;;;;;;;;;;;;17.57;39.59;100255.69;4959600;28;1073;-50
2023/02/04 08:11:14;;;;;;;;;;;;;;;16.03;43.24;100249.56;4960670;28;1054;-54
2023/02/04 08:13:40;;;;;;;;;;;;;;;15.64;43.88;100244.78;4960183;28;1141;-51
2023/02/04 08:16:05;;;;;;;;;;;;;;;16.71;42.14;100245.25;4960385;28;1152;-55
2023/02/04 08:18:31;;;;;;;;;;;;;;;15.81;43.64;100238.16;4960319;28;1124;-57
2023/02/04 08:20:58;;;;;;;;;;;;;;;17.12;41.02;100244.09;4964669;28;1973;-57
2023/02/04 08:23:23;;;;;;;;;;;;;;;17.06;40.79;100235.06;4960072;28;1054;-57
2023/02/04 08:25:48;;;;;;;;;;;;;;;16.01;43.24;100243.53;4959922;28;1188;-53
2023/02/04 08:28:14;;;;;;;;;;;;;;;15.71;43.78;100242.56;4959777;28;904;-55
2023/02/04 08:30:39;;;;;;;;;;;;;;;16.82;41.78;100246.00;4959813;28;1090;-50
2023/02/04 08:33:05;;;;;;;;;;;;;;;15.75;44.06;100240.06;4971675;28;1224;-50
2023/02/04 08:35:30;;;;;;;;;;;;;;;15.70;43.89;100243.66;4959497;28;1097;-49
2023/02/04 08:37:55;;;;;;;;;;;;;;;16.35;42.76;100231.78;4959745;28;1042;-54
2023/02/04 08:40:21;;;;;;;;;;;;;;;16.42;42.87;100236.97;4960148;28;1908;-53
2023/02/04 08:42:46;;;;;;;;;;;;;;;18.02;39.17;100233.44;4959580;28;1041;-55
2023/02/04 08:45:12;;;;;;;;;;;;;;;16.50;42.50;100232.81;4965723;28;1123;-48
2023/02/04 08:47:37;;;;;;;;;;;;;;;15.90;43.47;100231.78;4954158;28;1300;-54
2023/02/04 08:50:03;;;;;;;;;;;;;;;15.61;44.09;100241.78;4959350;28;887;-50
2023/02/04 08:52:28;;;;;;;;;;;;;;;16.30;42.79;100229.09;4959321;28;1077;-53
2023/02/04 08:54:54;;;;;;;;;;;;;;;15.83;43.67;100234.03;4959739;28;1132;-44
2023/02/04 08:57:19;;;;;;;;;;;;;;;15.47;44.04;100233.31;4959123;28;1094;-50
2023/02/04 08:59:45;;;;;;;;;;;;;;;16.55;42.31;100225.34;4959553;28;1898;-48
2023/02/04 09:02:10;;;;;;;;;;;;;;;15.54;44.27;100222.88;4959129;28;1061;-55
2023/02/04 09:04:35;;;;;;;;;;;;;;;17.50;40.53;100229.66;4959335;28;1022;-45
2023/02/04 09:07:01;;;;;;;;;;;;;;;16.62;42.28;100237.91;4959102;28;1109;-51
2023/02/04 09:09:26;;;;;;;;;;;;;;;15.82;43.82;100226.09;4967084;28;867;-53
2023/02/04 09:11:52;;;;;;;;;;;;;;;15.66;43.96;100225.31;4958839;28;1181;-53
2023/02/04 09:14:17;;;;;;;;;;;;;;;15.43;43.91;100222.13;4952931;28;1571;-54
2023/02/04 09:16:43;;;;;;;;;;;;;;;16.18;43.03;100221.22;4959252;28;1104;-52
2023/02/04 09:19:11;;;;;;;;;;;;;;;15.59;44.03;100219.31;4958068;28;1387;-56
2023/02/04 09:21:36;;;;;;;;;;;;;;;15.39;44.27;100210.88;4959697;28;1899;-45
2023/02/04 09:24:02;;;;;;;;;;;;;;;16.17;43.19;100213.28;4958549;28;1085;-53
2023/02/04 09:26:27;;;;;;;;;;;;;;;16.87;42.08;100214.91;4958410;28;919;-54
2023/02/04 09:28:53;;;;;;;;;;;;;;;18.09;39.15;100200.03;4959195;28;1216;-53
2023/02/04 09:31:18;;;;;;;;;;;;;;;16.71;41.88;100195.84;4959005;28;1153;-55
2023/02/04 09:33:44;;;;;;;;;;;;;;;16.01;43.49;100188.69;4967276;28;955;-53
2023/02/04 09:36:09;;;;;;;;;;;;;;;15.76;43.96;100186.06;4941702;28;1150;-56
2023/02/04 09:38:34;;;;;;;;;;;;;;;16.58;42.17;100191.84;4959064;28;1141;-57
2023/02/04 09:41:01;;;;;;;;;;;;;;;15.80;43.76;100184.44;4958414;28;1907;-57
2023/02/04 09:43:27;;;;;;;;;;;;;;;15.62;44.04;100186.69;4941789;29;1260;-60
2023/02/04 09:45:52;;;;;;;;;;;;;;;16.79;41.97;100180.69;4943304;28;892;-56
2023/02/04 09:48:18;;;;;;;;;;;;;;;15.84;43.73;100166.31;4958574;28;1108;-50
2023/02/04 09:50:43;;;;;;;;;;;;;;;17.15;41.38;100174.00;4941395;28;1077;-49
2023/02/04 09:53:10;;;;;;;;;;;;;;;16.62;42.08;100163.81;4958675;28;1204;-54
2023/02/04 09:55:36;;;;;;;;;;;;;;;15.77;43.96;100171.25;4941284;28;1086;-54
2023/02/04 09:58:04;;;;;;;;;;;;;;;15.80;43.68;100165.25;4950628;29;953;-52
2023/02/04 10:00:29;;;;;;;;;;;;;;;16.84;42.13;100149.59;4941064;28;1906;-55
2023/02/04 10:02:58;;;;;;;;;;;;;;;15.84;44.03;100156.16;4958629;28;1177;-54
2023/02/04 10:05:26;;;;;;;;;;;;;;;17.37;40.71;100152.31;4958160;28;1058;-57
2023/02/04 10:07:52;;;;;;;;;;;;;;;17.20;40.84;100146.47;4940917;29;1113;-57
2023/02/04 10:10:18;;;;;;;;;;;;;;;16.25;43.05;100138.59;4960991;28;899;-57
2023/02/04 10:12:44;;;;;;;;;;;;;;;16.57;42.77;100139.97;4958245;28;1271;-52
2023/02/04 10:15:13;;;;;;;;;;;;;;;16.27;42.97;100141.91;4940857;28;1145;-57
2023/02/04 10:17:38;;;;;;;;;;;;;;;15.78;43.76;100142.75;4958390;28;1061;-57
2023/02/04 10:20:04;;;;;;;;;;;;;;;15.68;43.79;100141.72;4957617;28;1919;-54
2023/02/04 10:22:29;;;;;;;;;;;;;;;15.74;44.10;100145.25;4967944;28;1018;-56
2023/02/04 10:24:55;;;;;;;;;;;;;;;16.01;43.46;100139.31;4957998;28;1074;-56
2023/02/04 10:27:20;;;;;;;;;;;;;;;15.59;44.33;100126.97;4958280;28;1066;-51
2023/02/04 10:29:56;;;;;;;;;;;;;;;17.02;41.52;100120.59;4958076;28;1057;-59
2023/02/04 10:32:31;;;;;;;;;;;;;;;15.80;43.92;100124.94;4942182;28;1137;-55
2023/02/04 10:34:57;;;;;;;;;;;;;;;15.84;44.17;100123.28;4959855;28;1101;-53
2023/02/04 10:37:23;;;;;;;;;;;;;;;16.04;43.54;100124.22;4940777;29;1070;-56
2023/02/04 10:39:48;;;;;;;;;;;;;;;15.58;44.29;100119.81;4957514;28;1915;-54
2023/02/04 10:42:26;;;;;;;;;;;;;;;16.43;43.07;100121.44;4958206;28;1177;-56
2023/02/04 10:44:52;;;;;;;;;;;;;;;16.04;43.67;100122.28;4962337;28;1177;-52
2023/02/04 10:47:18;;;;;;;;;;;;;;;17.86;39.66;100119.22;4963938;28;1144;-55
2023/02/04 10:50:01;;;;;;;;;;;;;;;17.57;39.98;100106.41;4956960;28;1275;-55
2023/02/04 10:52:37;;;;;;;;;;;;;;;16.28;43.22;100107.84;4940658;28;1102;-55
2023/02/04 10:55:03;;;;;;;;;;;;;;;16.10;43.23;100108.56;4957784;28;1133;-56
2023/02/04 10:57:29;;;;;;;;;;;;;;;16.87;41.93;100110.56;4945665;28;1249;-58
2023/02/04 10:59:56;;;;;;;;;;;;;;;16.02;43.51;100110.81;4958089;28;1887;-51
2023/02/04 11:02:24;;;;;;;;;;;;;;;15.69;44.18;100096.75;4958145;28;1069;-56
2023/02/04 11:04:49;;;;;;;;;;;;;;;15.70;43.83;100103.06;4957868;28;1022;-52
2023/02/04 11:07:15;;;;;;;;;;;;;;;16.08;43.37;100095.13;4957545;28;1121;-53
2023/02/04 11:09:40;;;;;;;;;;;;;;;15.64;44.10;100099.53;4957689;28;1196;-51
2023/02/04 11:12:17;;;;;;;;;;;;;;;15.51;44.04;100097.41;4957342;28;1086;-55
2023/02/04 11:14:42;;;;;;;;;;;;;;;16.64;42.48;100092.97;4940636;29;1137;-59
2023/02/04 11:17:08;;;;;;;;;;;;;;;15.64;44.42;100085.00;4940047;29;1383;-49
2023/02/04 11:19:35;;;;;;;;;;;;;;;15.97;44.22;100090.84;4940122;29;1392;-57
2023/02/04 11:22:21;;;;;;;;;;;;;;;16.51;42.87;100086.22;4963544;28;2065;-60
2023/02/04 11:24:47;;;;;;;;;;;;;;;15.70;44.42;100090.16;4957422;28;1113;-58
2023/02/04 11:27:25;;;;;;;;;;;;;;;17.43;41.07;100089.84;4957234;28;1125;-55
2023/02/04 11:29:51;;;;;;;;;;;;;;;16.02;43.71;100082.53;4957262;28;1160;-56
2023/02/04 11:32:25;;;;;;;;;;;;;;;15.72;44.00;100087.13;4957213;28;999;-53
2023/02/04 11:34:51;;;;;;;;;;;;;;;15.55;43.97;100087.53;4958023;28;850;-50
2023/02/04 11:37:18;;;;;;;;;;;;;;;16.65;42.54;100076.22;4942321;29;1242;-62
2023/02/04 11:39:44;;;;;;;;;;;;;;;15.85;44.45;100083.78;4945158;29;1971;-57
2023/02/04 11:42:14;;;;;;;;;;;;;;;17.73;40.17;100072.09;4961046;28;1075;-51
2023/02/04 11:44:39;;;;;;;;;;;;;;;16.73;42.43;100077.50;4956400;29;1292;-57
2023/02/04 11:47:06;;;;;;;;;;;;;;;16.02;43.84;100074.31;4950072;29;893;-55
2023/02/04 11:49:31;;;;;;;;;;;;;;;16.05;43.87;100077.31;4943799;29;1154;-52
2023/02/04 11:52:09;;;;;;;;;;;;;;;16.29;43.45;100079.31;4943634;29;1175;-52
2023/02/04 11:54:35;;;;;;;;;;;;;;;15.91;44.36;100068.13;4960261;28;1102;-56
2023/02/04 11:57:00;;;;;;;;;;;;;;;17.41;40.94;100070.91;4961457;28;1156;-59
2023/02/04 11:59:25;;;;;;;;;;;;;;;16.17;43.59;100074.22;4961285;28;1156;-59
2023/02/04 12:01:51;;;;;;;;;;;;;;;15.89;44.00;100071.16;4960235;28;1896;-57
2023/02/04 12:04:20;;;;;;;;;;;;;;;15.53;44.25;100074.09;4942971;29;1493;-55
2023/02/04 12:06:55;;;;;;;;;;;;;;;16.61;42.90;100058.69;4960634;28;1149;-53
2023/02/04 12:09:24;;;;;;;;;;;;;;;15.76;44.38;100066.28;4963054;28;1097;-58
2023/02/04 12:11:53;;;;;;;;;;;;;;;15.52;44.26;100063.44;4965067;28;1093;-50
2023/02/04 12:14:19;;;;;;;;;;;;;;;16.61;42.50;100055.94;4960604;28;1192;-52
2023/02/04 12:16:45;;;;;;;;;;;;;;;15.74;44.21;100055.59;4959659;28;1169;-49
2023/02/04 12:19:11;;;;;;;;;;;;;;;16.98;41.93;100068.16;4959865;28;1208;-52
2023/02/04 12:21:38;;;;;;;;;;;;;;;16.16;43.65;100058.84;4962800;28;1914;-54
2023/02/04 12:24:04;;;;;;;;;;;;;;;15.82;44.26;100062.44;4960173;28;1014;-57
2023/02/04 12:26:29;;;;;;;;;;;;;;;17.09;41.42;100053.19;4959754;28;1097;-55
2023/02/04 12:28:55;;;;;;;;;;;;;;;15.96;43.97;100048.88;4960301;28;1189;-56
2023/02/04 12:31:20;;;;;;;;;;;;;;;17.16;41.60;100057.53;4960108;28;1073;-46
2023/02/04 12:33:46;;;;;;;;;;;;;;;16.67;42.51;100057.50;4964861;28;1061;-53
2023/02/04 12:36:11;;;;;;;;;;;;;;;16.02;43.71;100060.59;4964296;28;1092;-49
2023/02/04 12:38:37;;;;;;;;;;;;;;;15.69;44.09;100074.81;4959312;28;1133;-49
2023/02/04 12:41:02;;;;;;;;;;;;;;;16.90;42.12;100066.06;4960023;28;1915;-57
2023/02/04 12:43:28;;;;;;;;;;;;;;;15.89;44.18;100064.84;4959859;28;1093;-55